createdAt,value
2022-09-10T00:02:01.945Z,8.57
2022-09-10T00:04:28.618Z,9.60
2022-09-10T00:06:55.669Z,10.70
2022-09-10T00:09:25.304Z,6.93
2022-09-10T00:11:51.728Z,6.60
2022-09-10T00:14:21.300Z,7.03
2022-09-10T00:16:48.489Z,6.90
2022-09-10T00:19:15.584Z,7.57
2022-09-10T00:21:44.321Z,9.07
2022-09-10T00:24:10.834Z,7.83
2022-09-10T00:26:40.685Z,7.10
2022-09-10T00:29:09.535Z,7.63
2022-09-10T00:31:36.375Z,7.43
2022-09-10T00:34:03.845Z,11.47
2022-09-10T00:36:33.164Z,8.10
2022-09-10T00:39:02.421Z,9.03
2022-09-10T00:41:29.863Z,7.43
2022-09-10T00:44:05.249Z,8.87
2022-09-10T00:46:37.880Z,7.30
2022-09-10T00:49:17.843Z,8.10
2022-09-10T00:51:44.585Z,7.57
2022-09-10T00:54:11.372Z,8.57
2022-09-10T00:56:37.850Z,7.73
2022-09-10T00:59:04.805Z,9.30
2022-09-10T01:01:33.666Z,10.60
2022-09-10T01:04:00.761Z,10.73
2022-09-10T01:06:27.704Z,11.53
2022-09-10T01:08:54.130Z,12.27
2022-09-10T01:11:26.676Z,9.93
2022-09-10T01:14:32.349Z,14.60
2022-09-10T01:17:22.070Z,14.47
2022-09-10T01:20:16.430Z,9.20
2022-09-10T01:23:17.578Z,8.53
2022-09-10T01:26:12.610Z,8.97
2022-09-10T01:28:51.438Z,11.23
2022-09-10T01:31:33.097Z,10.60
2022-09-10T01:34:33.064Z,9.70
2022-09-10T01:37:05.593Z,10.33
2022-09-10T01:39:32.388Z,11.30
2022-09-10T01:41:58.944Z,13.57
2022-09-10T01:44:49.049Z,10.43
2022-09-10T01:47:24.632Z,12.73
2022-09-10T01:49:58.387Z,13.50
2022-09-10T01:52:42.258Z,12.50
2022-09-10T01:55:08.754Z,9.43
2022-09-10T01:57:57.611Z,9.30
2022-09-10T02:00:25.121Z,12.70
2022-09-10T02:03:14.010Z,13.17
2022-09-10T02:05:42.398Z,11.80
2022-09-10T02:08:15.904Z,11.40
2022-09-10T02:10:54.080Z,11.00
2022-09-10T02:13:22.641Z,9.00
2022-09-10T02:15:52.038Z,10.40
2022-09-10T02:18:22.360Z,9.60
2022-09-10T02:20:51.438Z,10.93
2022-09-10T02:23:21.910Z,10.17
2022-09-10T02:25:49.459Z,12.80
2022-09-10T02:28:16.254Z,14.50
2022-09-10T02:30:42.688Z,12.27
2022-09-10T02:33:09.172Z,11.97
2022-09-10T02:35:35.648Z,11.60
2022-09-10T02:38:02.153Z,14.23
2022-09-10T02:40:31.830Z,9.90
2022-09-10T02:42:58.354Z,9.70
2022-09-10T02:45:25.182Z,11.47
2022-09-10T02:47:51.714Z,8.90
2022-09-10T02:50:18.560Z,9.37
2022-09-10T02:52:51.347Z,8.97
2022-09-10T02:55:18.117Z,9.30
2022-09-10T02:57:45.411Z,8.90
2022-09-10T03:00:12.204Z,9.37
2022-09-10T03:02:38.652Z,8.73
2022-09-10T03:05:05.528Z,11.33
2022-09-10T03:07:32.482Z,12.17
2022-09-10T03:09:58.932Z,11.37
2022-09-10T03:12:25.382Z,10.83
2022-09-10T03:14:53.339Z,11.37
2022-09-10T03:17:19.840Z,10.70
2022-09-10T03:19:46.293Z,12.57
2022-09-10T03:22:12.778Z,12.63
2022-09-10T03:24:39.205Z,14.50
2022-09-10T03:27:06.876Z,11.57
2022-09-10T03:29:33.537Z,11.30
2022-09-10T03:32:01.194Z,12.27
2022-09-10T03:34:27.622Z,11.60
2022-09-10T03:36:54.549Z,12.97
2022-09-10T03:39:21.020Z,12.47
2022-09-10T03:41:47.937Z,12.03
2022-09-10T03:44:14.510Z,9.90
2022-09-10T03:46:41.348Z,10.40
2022-09-10T03:49:08.243Z,14.97
2022-09-10T03:51:35.242Z,11.43
2022-09-10T03:54:02.540Z,12.33
2022-09-10T03:56:29.010Z,10.87
2022-09-10T03:58:55.450Z,10.40
2022-09-10T04:01:21.968Z,11.60
2022-09-10T04:03:48.798Z,13.47
2022-09-10T04:06:16.346Z,11.70
2022-09-10T04:08:45.664Z,16.80
2022-09-10T04:11:13.798Z,12.97
2022-09-10T04:13:40.251Z,13.33
2022-09-10T04:16:06.941Z,13.97
2022-09-10T04:18:34.330Z,13.03
2022-09-10T04:21:00.926Z,12.73
2022-09-10T04:23:27.465Z,12.50
2022-09-10T04:25:53.938Z,13.23
2022-09-10T04:28:20.422Z,12.87
2022-09-10T04:30:47.150Z,11.83
2022-09-10T04:33:13.821Z,12.53
2022-09-10T04:35:40.279Z,11.30
2022-09-10T04:38:08.087Z,11.50
2022-09-10T04:40:34.822Z,12.50
2022-09-10T04:43:01.442Z,15.00
2022-09-10T04:45:27.933Z,15.70
2022-09-10T04:47:54.395Z,13.30
2022-09-10T04:50:21.923Z,12.53
2022-09-10T04:52:48.436Z,13.50
2022-09-10T04:55:15.656Z,13.87
2022-09-10T04:57:42.271Z,10.13
2022-09-10T05:00:09.338Z,13.40
2022-09-10T05:02:37.661Z,12.03
2022-09-10T05:05:04.438Z,11.00
2022-09-10T05:07:31.019Z,11.60
2022-09-10T05:09:57.455Z,10.77
2022-09-10T05:12:24.267Z,10.53
2022-09-10T05:14:50.724Z,10.33
2022-09-10T05:17:17.173Z,13.67
2022-09-10T05:19:43.609Z,12.53
2022-09-10T05:22:10.207Z,12.23
2022-09-10T05:24:36.828Z,13.43
2022-09-10T05:27:03.500Z,12.77
2022-09-10T05:29:29.940Z,13.80
2022-09-10T05:31:56.486Z,11.70
2022-09-10T05:34:23.024Z,11.93
2022-09-10T05:36:49.542Z,11.60
2022-09-10T05:39:16.010Z,12.33
2022-09-10T05:41:43.629Z,13.47
2022-09-10T05:44:10.050Z,11.33
2022-09-10T05:46:36.505Z,13.50
2022-09-10T05:49:02.931Z,12.60
2022-09-10T05:51:30.757Z,15.53
2022-09-10T05:53:57.739Z,12.70
2022-09-10T05:56:25.756Z,11.07
2022-09-10T05:58:52.218Z,14.10
2022-09-10T06:01:18.913Z,13.90
2022-09-10T06:03:45.443Z,14.10
2022-09-10T06:06:12.077Z,11.50
2022-09-10T06:08:40.023Z,13.10
2022-09-10T06:11:07.480Z,10.27
2022-09-10T06:13:35.409Z,13.33
2022-09-10T06:16:02.450Z,13.13
2022-09-10T06:18:29.029Z,13.47
2022-09-10T06:21:07.016Z,12.47
2022-09-10T06:23:34.023Z,13.30
2022-09-10T06:26:09.690Z,13.43
2022-09-10T06:28:36.441Z,12.03
2022-09-10T06:31:06.496Z,15.30
2022-09-10T06:33:33.422Z,12.40
2022-09-10T06:36:01.480Z,12.70
2022-09-10T06:38:30.069Z,11.20
2022-09-10T06:41:00.125Z,11.47
2022-09-10T06:43:27.582Z,10.13
2022-09-10T06:45:55.017Z,11.33
2022-09-10T06:48:40.029Z,10.13
2022-09-10T06:51:13.297Z,12.07
2022-09-10T06:53:41.142Z,11.57
2022-09-10T06:56:10.493Z,10.87
2022-09-10T06:58:37.050Z,9.27
2022-09-10T07:01:14.689Z,8.77
2022-09-10T07:03:43.502Z,10.17
2022-09-10T07:06:19.396Z,9.60
2022-09-10T07:08:45.839Z,10.23
2022-09-10T07:11:14.682Z,8.70
2022-09-10T07:13:43.035Z,8.80
2022-09-10T07:16:10.152Z,9.23
2022-09-10T07:18:37.053Z,8.27
2022-09-10T07:21:14.065Z,7.67
2022-09-10T07:23:41.240Z,8.83
2022-09-10T07:26:11.427Z,16.83
2022-09-10T07:28:38.970Z,8.10
2022-09-10T07:31:18.666Z,7.17
2022-09-10T07:33:45.775Z,8.23
2022-09-10T07:36:15.077Z,10.43
2022-09-10T07:38:42.392Z,8.50
2022-09-10T07:41:11.365Z,8.37
2022-09-10T07:43:39.210Z,7.23
2022-09-10T07:46:07.056Z,7.10
2022-09-10T07:48:34.176Z,7.07
2022-09-10T07:51:02.495Z,10.40
2022-09-10T07:53:28.952Z,7.77
2022-09-10T07:56:03.565Z,8.93
2022-09-10T07:58:31.739Z,6.90
2022-09-10T08:00:59.754Z,8.00
2022-09-10T08:03:27.507Z,7.77
2022-09-10T08:05:54.197Z,8.63
2022-09-10T08:08:21.237Z,7.53
2022-09-10T08:10:48.709Z,8.57
2022-09-10T08:13:15.703Z,7.03
2022-09-10T08:15:45.616Z,7.53
2022-09-10T08:18:13.624Z,8.07
2022-09-10T08:20:40.430Z,6.80
2022-09-10T08:23:07.628Z,6.60
2022-09-10T08:25:34.749Z,7.33
2022-09-10T08:28:01.286Z,7.27
2022-09-10T08:30:28.591Z,4.90
2022-09-10T08:32:56.176Z,5.03
2022-09-10T08:35:22.620Z,5.33
2022-09-10T08:37:49.205Z,5.13
2022-09-10T08:40:16.380Z,5.63
2022-09-10T08:42:48.197Z,6.93
2022-09-10T08:45:24.190Z,4.97
2022-09-10T08:47:59.161Z,4.40
2022-09-10T08:51:00.277Z,4.10
2022-09-10T08:53:53.870Z,3.77
2022-09-10T08:56:22.696Z,3.90
2022-09-10T08:59:04.234Z,3.77
2022-09-10T09:01:35.732Z,5.10
2022-09-10T09:04:09.872Z,4.43
2022-09-10T09:06:41.597Z,4.77
2022-09-10T09:09:14.778Z,5.03
2022-09-10T09:12:15.695Z,3.20
2022-09-10T09:14:58.926Z,2.97
2022-09-10T09:17:59.757Z,3.87
2022-09-10T09:20:52.595Z,3.23
2022-09-10T09:23:25.085Z,4.47
2022-09-10T09:25:59.219Z,2.77
2022-09-10T09:28:54.991Z,2.20
2022-09-10T09:31:31.155Z,2.20
2022-09-10T09:34:07.160Z,2.40
2022-09-10T09:36:37.882Z,2.10
2022-09-10T09:39:22.848Z,1.53
2022-09-10T09:42:09.553Z,2.13
2022-09-10T09:44:39.693Z,2.33
2022-09-10T09:47:08.362Z,2.30
2022-09-10T09:49:35.416Z,2.60
2022-09-10T09:52:06.221Z,2.57
2022-09-10T09:55:03.303Z,2.87
2022-09-10T09:57:20.938Z,2.10
2022-09-10T09:59:49.453Z,2.03
2022-09-10T10:02:24.062Z,3.57
2022-09-10T10:04:57.429Z,3.70
2022-09-10T10:07:32.571Z,2.60
2022-09-10T10:10:03.541Z,2.80
2022-09-10T10:12:33.396Z,2.93
2022-09-10T10:15:02.684Z,2.63
2022-09-10T10:17:39.289Z,2.53
2022-09-10T10:20:14.402Z,2.70
2022-09-10T10:22:42.590Z,3.90
2022-09-10T10:25:38.410Z,3.23
2022-09-10T10:28:24.105Z,3.97
2022-09-10T10:30:52.750Z,2.47
2022-09-10T10:33:25.845Z,3.10
2022-09-10T10:36:17.554Z,2.93
2022-09-10T10:38:58.048Z,3.90
2022-09-10T10:41:42.085Z,3.33
2022-09-10T10:44:17.449Z,2.93
2022-09-10T10:46:58.488Z,2.23
2022-09-10T10:49:56.046Z,2.73
2022-09-10T10:52:28.956Z,3.03
2022-09-10T10:55:17.350Z,2.83
2022-09-10T10:58:15.569Z,2.67
2022-09-10T11:01:18.160Z,2.60
2022-09-10T11:03:48.836Z,3.17
2022-09-10T11:06:20.438Z,2.83
2022-09-10T11:08:51.905Z,3.57
2022-09-10T11:11:31.699Z,2.27
2022-09-10T11:14:26.093Z,2.63
2022-09-10T11:16:58.902Z,3.53
2022-09-10T11:19:25.604Z,2.87
2022-09-10T11:22:01.239Z,2.60
2022-09-10T11:25:07.584Z,3.50
2022-09-10T11:27:38.821Z,2.60
2022-09-10T11:30:19.266Z,2.53
2022-09-10T11:32:48.744Z,4.33
2022-09-10T11:35:34.395Z,2.90
2022-09-10T11:38:07.905Z,2.53
2022-09-10T11:40:39.258Z,2.63
2022-09-10T11:43:33.157Z,2.30
2022-09-10T11:46:08.293Z,4.30
2022-09-10T11:48:42.770Z,3.57
2022-09-10T11:51:38.056Z,2.47
2022-09-10T11:54:07.294Z,3.97
2022-09-10T11:56:36.866Z,4.13
2022-09-10T11:59:19.977Z,3.40
2022-09-10T12:02:02.859Z,3.23
2022-09-10T12:04:39.362Z,3.07
2022-09-10T12:07:28.709Z,2.53
2022-09-10T12:10:14.148Z,1.67
2022-09-10T12:12:45.118Z,3.77
2022-09-10T12:15:23.088Z,2.27
2022-09-10T12:17:54.485Z,2.47
2022-09-10T12:20:27.974Z,1.80
2022-09-10T12:22:55.445Z,2.73
2022-09-10T12:25:21.848Z,2.37
2022-09-10T12:27:53.581Z,1.37
2022-09-10T12:30:33.611Z,4.03
2022-09-10T12:33:03.000Z,1.67
2022-09-10T12:35:35.462Z,2.80
2022-09-10T12:38:42.942Z,2.83
2022-09-10T12:41:14.521Z,3.77
2022-09-10T12:43:41.053Z,1.70
2022-09-10T12:46:07.931Z,3.20
2022-09-10T12:48:37.128Z,2.40
2022-09-10T12:51:13.964Z,2.43
2022-09-10T12:54:07.445Z,3.90
2022-09-10T12:56:33.978Z,2.23
2022-09-10T12:59:19.222Z,2.97
2022-09-10T13:01:47.847Z,2.03
2022-09-10T13:04:34.670Z,2.07
2022-09-10T13:07:04.807Z,1.87
2022-09-10T13:09:38.233Z,1.97
2022-09-10T13:12:18.363Z,2.67
2022-09-10T13:14:48.112Z,1.73
2022-09-10T13:17:54.452Z,3.13
2022-09-10T13:20:20.910Z,3.63
2022-09-10T13:23:06.650Z,3.67
2022-09-10T13:25:42.668Z,3.33
2022-09-10T13:28:31.365Z,4.77
2022-09-10T13:31:01.813Z,3.07
2022-09-10T13:33:34.273Z,2.37
2022-09-10T13:36:32.970Z,4.80
2022-09-10T13:39:16.021Z,3.07
2022-09-10T13:42:10.905Z,2.93
2022-09-10T13:45:09.814Z,2.50
2022-09-10T13:47:58.798Z,2.57
2022-09-10T13:50:27.961Z,2.77
2022-09-10T13:52:57.916Z,3.63
2022-09-10T13:55:29.810Z,2.27
2022-09-10T13:58:06.258Z,2.00
2022-09-10T14:00:40.187Z,3.03
2022-09-10T14:03:15.036Z,3.50
2022-09-10T14:05:52.300Z,3.53
2022-09-10T14:08:24.809Z,3.10
2022-09-10T14:11:06.514Z,3.00
2022-09-10T14:13:35.734Z,4.47
2022-09-10T14:16:04.533Z,5.47
2022-09-10T14:18:40.763Z,6.13
2022-09-10T14:21:07.285Z,5.07
2022-09-10T14:23:33.874Z,4.93
2022-09-10T14:26:15.771Z,4.37
2022-09-10T14:28:53.545Z,5.27
2022-09-10T14:31:31.669Z,5.73
2022-09-10T14:33:59.412Z,4.07
2022-09-10T14:36:29.151Z,4.07
2022-09-10T14:39:14.303Z,3.87
2022-09-10T14:41:40.900Z,3.67
2022-09-10T14:44:29.764Z,6.57
2022-09-10T14:46:58.912Z,7.33
2022-09-10T14:49:30.991Z,5.87
2022-09-10T14:51:59.364Z,7.07
2022-09-10T14:54:27.566Z,6.00
2022-09-10T14:56:55.846Z,7.37
2022-09-10T14:59:36.369Z,6.47
2022-09-10T15:02:11.666Z,4.80
2022-09-10T15:04:38.946Z,3.33
2022-09-10T15:07:05.506Z,3.87
2022-09-10T15:09:31.992Z,3.23
2022-09-10T15:12:11.987Z,3.97
2022-09-10T15:14:38.933Z,4.53
2022-09-10T15:17:05.498Z,4.30
2022-09-10T15:19:32.075Z,4.77
2022-09-10T15:21:58.722Z,2.63
2022-09-10T15:24:25.982Z,2.83
2022-09-10T15:26:52.582Z,3.40
2022-09-10T15:29:19.102Z,3.23
2022-09-10T15:31:45.594Z,3.27
2022-09-10T15:34:12.295Z,5.50
2022-09-10T15:36:40.098Z,2.83
2022-09-10T15:39:08.130Z,3.47
2022-09-10T15:41:34.558Z,2.53
2022-09-10T15:44:03.562Z,2.73
2022-09-10T15:46:30.743Z,2.00
2022-09-10T15:48:58.841Z,2.10
2022-09-10T15:51:25.575Z,3.10
2022-09-10T15:53:53.135Z,1.83
2022-09-10T15:56:21.081Z,2.43
2022-09-10T15:58:52.375Z,1.83
2022-09-10T16:01:19.142Z,2.90
2022-09-10T16:03:48.013Z,2.47
2022-09-10T16:06:15.855Z,1.93
2022-09-10T16:08:42.514Z,1.77
2022-09-10T16:11:11.809Z,2.23
2022-09-10T16:13:39.755Z,1.77
2022-09-10T16:16:11.335Z,1.93
2022-09-10T16:18:38.098Z,1.90
2022-09-10T16:21:09.355Z,2.60
2022-09-10T16:23:37.476Z,3.30
2022-09-10T16:26:06.033Z,3.43
2022-09-10T16:28:33.877Z,2.23
2022-09-10T16:31:15.360Z,2.73
2022-09-10T16:33:42.798Z,3.47
2022-09-10T16:36:10.966Z,3.70
2022-09-10T16:38:37.805Z,3.83
2022-09-10T16:47:45.178Z,3.30
2022-09-10T16:50:20.187Z,3.23
2022-09-10T16:52:49.140Z,3.70
2022-09-10T16:55:16.316Z,4.63
2022-09-10T16:57:42.799Z,3.57
2022-09-10T17:00:11.125Z,4.13
2022-09-10T17:02:37.777Z,4.07
2022-09-10T17:05:05.083Z,5.57
2022-09-10T17:07:31.922Z,6.17
2022-09-10T17:10:00.844Z,5.17
2022-09-10T17:12:28.235Z,6.20
2022-09-10T17:14:54.664Z,6.50
2022-09-10T17:17:21.150Z,6.70
2022-09-10T17:19:47.717Z,9.03
2022-09-10T17:22:14.179Z,8.50
2022-09-10T17:24:41.176Z,7.87
2022-09-10T17:27:07.629Z,8.03
2022-09-10T17:29:34.221Z,8.13
2022-09-10T17:32:00.690Z,8.03
2022-09-10T17:34:28.141Z,8.13
2022-09-10T17:36:54.861Z,9.23
2022-09-10T17:39:21.392Z,11.57
2022-09-10T17:41:48.416Z,10.60
2022-09-10T17:44:16.662Z,10.13
2022-09-10T17:46:43.288Z,9.80
2022-09-10T17:49:12.968Z,10.20
2022-09-10T17:51:39.756Z,8.93
2022-09-10T17:54:07.266Z,9.43
2022-09-10T17:56:34.070Z,11.20
2022-09-10T17:59:02.967Z,8.90
2022-09-10T18:01:36.441Z,10.30
2022-09-10T18:04:04.152Z,10.33
2022-09-10T18:06:32.312Z,10.60
2022-09-10T18:09:00.460Z,10.73
2022-09-10T18:11:40.565Z,12.50
2022-09-10T18:14:08.395Z,12.03
2022-09-10T18:16:36.334Z,11.70
2022-09-10T18:19:12.917Z,11.53
2022-09-10T18:21:41.446Z,12.33
2022-09-10T18:24:23.683Z,12.07
2022-09-10T18:26:52.094Z,11.63
2022-09-10T18:29:27.825Z,14.30
2022-09-10T18:31:56.601Z,13.67
2022-09-10T18:34:26.999Z,12.20
2022-09-10T18:36:56.556Z,14.83
2022-09-10T18:39:24.246Z,13.60
2022-09-10T18:41:52.182Z,13.53
2022-09-10T18:44:21.771Z,16.27
2022-09-10T18:46:49.731Z,17.40
2022-09-10T18:49:21.203Z,14.47
2022-09-10T18:51:48.531Z,14.90
2022-09-10T18:54:16.489Z,15.00
2022-09-10T18:56:44.859Z,14.27
2022-09-10T18:59:13.061Z,14.70
2022-09-10T19:01:43.181Z,16.17
2022-09-10T19:04:11.329Z,16.40
2022-09-10T19:06:40.812Z,15.10
2022-09-10T19:09:09.883Z,16.07
2022-09-10T19:11:38.967Z,16.67
2022-09-10T19:14:13.381Z,17.80
2022-09-10T19:16:41.358Z,17.30
2022-09-10T19:19:08.308Z,18.33
2022-09-10T19:21:38.386Z,17.20
2022-09-10T19:24:04.938Z,18.57
2022-09-10T19:26:33.585Z,17.73
2022-09-10T19:29:01.671Z,18.93
2022-09-10T19:31:30.105Z,16.13
2022-09-10T19:34:01.789Z,16.03
2022-09-10T19:36:30.841Z,17.20
2022-09-10T19:38:57.838Z,18.63
2022-09-10T19:41:25.549Z,19.60
2022-09-10T19:43:53.846Z,20.17
2022-09-10T19:46:21.890Z,19.30
2022-09-10T19:48:48.694Z,21.10
2022-09-10T19:51:17.467Z,22.67
2022-09-10T19:53:43.971Z,20.63
2022-09-10T19:56:18.306Z,21.47
2022-09-10T19:58:49.711Z,18.90
2022-09-10T20:01:23.865Z,20.03
2022-09-10T20:03:51.006Z,19.67
2022-09-10T20:06:19.364Z,20.13
2022-09-10T20:08:50.679Z,24.67
2022-09-10T20:11:22.858Z,20.50
2022-09-10T20:13:50.059Z,19.23
2022-09-10T20:16:17.085Z,18.60
2022-09-10T20:18:43.630Z,18.07
2022-09-10T20:21:16.165Z,14.83
2022-09-10T20:23:47.553Z,16.27
2022-09-10T20:26:16.693Z,20.70
2022-09-10T20:28:43.606Z,15.63
2022-09-10T20:31:12.021Z,13.43
2022-09-10T20:33:40.261Z,14.87
2022-09-10T20:36:11.067Z,13.40
2022-09-10T20:38:38.265Z,13.17
2022-09-10T20:41:05.802Z,15.47
2022-09-10T20:43:32.595Z,17.23
2022-09-10T20:45:59.127Z,21.53
2022-09-10T20:48:25.779Z,18.23
2022-09-10T20:50:57.920Z,20.60
2022-09-10T20:53:25.090Z,15.23
2022-09-10T20:55:51.624Z,20.53
2022-09-10T20:58:18.825Z,15.17
2022-09-10T21:00:45.554Z,15.37
2022-09-10T21:03:12.706Z,19.90
2022-09-10T21:05:39.417Z,20.47
2022-09-10T21:08:06.223Z,23.57
2022-09-10T21:10:37.337Z,23.77
2022-09-10T21:13:04.761Z,24.80
2022-09-10T21:15:31.428Z,22.77
2022-09-10T21:17:58.463Z,23.90
2022-09-10T21:20:25.036Z,24.23
2022-09-10T21:22:51.531Z,21.87
2022-09-10T21:25:19.193Z,21.87
2022-09-10T21:27:46.885Z,21.80
2022-09-10T21:30:13.508Z,23.57
2022-09-10T21:32:40.582Z,24.90
2022-09-10T21:35:07.482Z,22.33
2022-09-10T21:37:33.982Z,22.33
2022-09-10T21:40:01.142Z,21.63
2022-09-10T21:42:28.269Z,22.03
2022-09-10T21:44:54.781Z,20.97
2022-09-10T21:47:21.364Z,18.83
2022-09-10T21:49:48.451Z,19.37
2022-09-10T21:52:15.181Z,20.40
2022-09-10T21:54:41.909Z,19.80
2022-09-10T21:57:10.963Z,20.77
2022-09-10T21:59:37.576Z,20.37
2022-09-10T22:02:08.099Z,20.57
2022-09-10T22:04:34.922Z,19.93
2022-09-10T22:07:04.675Z,19.87
2022-09-10T22:09:32.078Z,17.20
2022-09-10T22:11:59.202Z,15.27
2022-09-10T22:14:25.975Z,14.83
2022-09-10T22:16:52.639Z,15.70
2022-09-10T22:19:22.426Z,15.03
2022-09-10T22:21:49.185Z,16.43
2022-09-10T22:24:18.518Z,17.17
2022-09-10T22:26:45.470Z,15.17
2022-09-10T22:29:12.663Z,15.47
2022-09-10T22:31:39.161Z,16.73
2022-09-10T22:34:08.401Z,16.17
2022-09-10T22:36:39.545Z,15.60
2022-09-10T22:39:14.633Z,15.10
2022-09-10T22:41:41.904Z,15.17
2022-09-10T22:44:09.001Z,15.17
2022-09-10T22:46:36.433Z,14.17
2022-09-10T22:49:04.369Z,15.03
2022-09-10T22:51:35.104Z,15.07
2022-09-10T22:54:02.804Z,19.80
2022-09-10T22:56:29.694Z,24.20
2022-09-10T22:58:57.928Z,24.90
2022-09-10T23:01:29.668Z,17.57
2022-09-10T23:04:00.424Z,16.93
2022-09-10T23:06:29.151Z,16.47
2022-09-10T23:08:58.111Z,16.97
2022-09-10T23:11:27.030Z,18.17
2022-09-10T23:13:59.417Z,21.20
2022-09-10T23:16:34.484Z,27.80
2022-09-10T23:19:03.977Z,31.13
2022-09-10T23:21:31.930Z,29.90
2022-09-10T23:24:00.629Z,32.53
2022-09-10T23:26:27.412Z,35.40
2022-09-10T23:28:54.767Z,40.50
2022-09-10T23:31:26.122Z,51.27
2022-09-10T23:34:00.680Z,28.03
2022-09-10T23:36:29.975Z,46.60
2022-09-10T23:38:57.683Z,88.70
2022-09-10T23:41:25.909Z,48.70
2022-09-10T23:43:52.390Z,66.73
2022-09-10T23:46:18.915Z,113.33
2022-09-10T23:48:46.358Z,102.70
2022-09-10T23:51:14.162Z,89.97
2022-09-10T23:53:40.685Z,71.83
2022-09-10T23:56:07.285Z,86.27
2022-09-10T23:58:33.732Z,39.60
